Time;durP1;ratioP1;P1;durP2;ratioP2;P2;SDS_P1;SDS_P2;PMS_P1;PMS_P2;Temp;Humidity;BMP_temperature;BMP_pressure;BME280_temperature;BME280_humidity;BME280_pressure;Samples;Min_cycle;Max_cycle;Signal;HPM_P1;HPM_P2
2023/08/03 00:01:56;;;;;;;4.75;1.30;;;16.40;99.90;;;;;;5082589;28;20401;-73
2023/08/03 00:04:22;;;;;;;5.80;1.40;;;16.40;99.90;;;;;;5067609;28;20066;-73
2023/08/03 00:06:47;;;;;;;6.68;1.50;;;16.40;99.90;;;;;;5085406;28;20059;-73
2023/08/03 00:09:13;;;;;;;5.43;1.58;;;16.40;99.90;;;;;;5083187;28;20107;-73
2023/08/03 00:11:39;;;;;;;5.53;1.20;;;16.40;99.90;;;;;;5050267;28;20079;-73
2023/08/03 00:14:05;;;;;;;7.43;1.58;;;16.50;99.90;;;;;;5080922;28;20440;-73
2023/08/03 00:16:31;;;;;;;6.78;1.52;;;16.40;99.90;;;;;;5084366;28;20044;-72
2023/08/03 00:18:56;;;;;;;6.88;1.42;;;16.40;99.90;;;;;;5082167;28;20062;-70
2023/08/03 00:21:22;;;;;;;7.78;1.40;;;16.40;99.90;;;;;;5080339;28;20036;-70
2023/08/03 00:23:48;;;;;;;7.22;2.25;;;16.40;99.90;;;;;;5083895;28;20036;-69
2023/08/03 00:26:14;;;;;;;4.43;1.38;;;16.40;99.90;;;;;;5085268;28;20047;-70
2023/08/03 00:28:41;;;;;;;3.95;1.33;;;16.40;99.90;;;;;;5079905;28;20051;-69
2023/08/03 00:31:07;;;;;;;3.95;1.30;;;16.40;99.90;;;;;;5067447;28;20548;-71
2023/08/03 00:33:33;;;;;;;6.75;1.05;;;16.40;99.90;;;;;;5064884;28;20123;-70
2023/08/03 00:35:58;;;;;;;4.00;1.17;;;16.40;99.90;;;;;;5084490;28;20040;-70
2023/08/03 00:38:24;;;;;;;7.13;1.25;;;16.40;99.90;;;;;;5064579;28;20048;-70
2023/08/03 00:40:51;;;;;;;6.13;1.40;;;16.40;99.90;;;;;;5086093;28;20499;-70
2023/08/03 00:43:17;;;;;;;3.95;1.20;;;16.40;99.90;;;;;;5084720;28;20131;-71
2023/08/03 00:45:43;;;;;;;4.40;1.30;;;16.50;99.90;;;;;;5082562;28;20116;-71
2023/08/03 00:48:09;;;;;;;8.23;2.10;;;16.40;99.90;;;;;;5062211;28;20089;-70
2023/08/03 00:50:34;;;;;;;5.93;1.40;;;16.50;99.90;;;;;;5062132;28;20048;-72
2023/08/03 00:53:00;;;;;;;5.97;1.05;;;16.40;99.90;;;;;;5081993;28;20036;-73
2023/08/03 00:55:26;;;;;;;8.70;1.30;;;16.50;99.90;;;;;;5066347;28;20456;-73
2023/08/03 00:57:52;;;;;;;7.38;1.40;;;16.40;99.90;;;;;;5085100;28;20082;-73
2023/08/03 01:00:17;;;;;;;5.53;1.08;;;16.50;99.90;;;;;;5067012;28;20386;-73
2023/08/03 01:02:43;;;;;;;7.25;1.23;;;16.50;99.90;;;;;;5086219;28;20051;-72
2023/08/03 01:05:09;;;;;;;5.47;1.38;;;16.40;99.90;;;;;;5084086;28;20152;-72
2023/08/03 01:07:34;;;;;;;5.82;1.15;;;16.50;99.90;;;;;;5082213;28;20043;-72
2023/08/03 01:10:01;;;;;;;6.13;1.45;;;16.50;99.90;;;;;;5060851;28;20044;-73
2023/08/03 01:12:27;;;;;;;7.75;1.58;;;16.40;99.90;;;;;;5082414;28;20051;-72
2023/08/03 01:14:53;;;;;;;4.88;1.38;;;16.40;99.90;;;;;;5068117;28;20058;-73
2023/08/03 01:17:20;;;;;;;4.88;1.08;;;16.40;99.90;;;;;;5083537;28;20040;-72
2023/08/03 01:19:46;;;;;;;1.88;0.90;;;16.40;99.90;;;;;;5084590;28;20049;-71
2023/08/03 01:22:13;;;;;;;4.72;1.35;;;16.40;99.90;;;;;;5068192;28;20244;-71
2023/08/03 01:24:39;;;;;;;3.47;1.13;;;16.40;99.90;;;;;;5083066;28;20063;-72
2023/08/03 01:27:05;;;;;;;3.35;1.20;;;16.40;99.90;;;;;;5060725;28;20036;-72
2023/08/03 01:29:31;;;;;;;3.75;1.10;;;16.40;99.90;;;;;;5067266;28;20040;-72
2023/08/03 01:31:59;;;;;;;4.70;0.95;;;16.40;99.90;;;;;;5083476;28;20040;-73
2023/08/03 01:34:25;;;;;;;4.30;1.10;;;16.40;99.90;;;;;;5081880;28;20508;-73
2023/08/03 01:36:55;;;;;;;3.55;1.00;;;16.40;99.90;;;;;;5082408;28;20178;-73
2023/08/03 01:39:24;;;;;;;3.72;1.08;;;16.40;99.90;;;;;;5083703;28;20585;-72
2023/08/03 01:41:50;;;;;;;3.58;1.00;;;16.40;99.90;;;;;;5083329;28;20654;-72
2023/08/03 01:44:29;;;;;;;4.90;1.10;;;16.40;99.90;;;;;;5063804;28;20052;-73
2023/08/03 01:46:56;;;;;;;4.45;1.30;;;16.40;99.90;;;;;;5084198;28;20861;-70
2023/08/03 01:49:23;;;;;;;2.85;1.00;;;16.40;99.90;;;;;;5070058;28;20051;-70
2023/08/03 01:51:49;;;;;;;3.83;1.52;;;16.40;99.90;;;;;;5089559;28;20043;-70
2023/08/03 01:54:15;;;;;;;4.40;1.40;;;16.40;99.90;;;;;;5089209;28;20499;-69
2023/08/03 01:56:42;;;;;;;4.68;1.10;;;16.40;99.90;;;;;;5089890;28;20081;-69
2023/08/03 01:59:07;;;;;;;3.40;1.10;;;16.40;99.90;;;;;;5070953;28;20040;-69
2023/08/03 02:01:33;;;;;;;2.58;0.90;;;16.40;99.90;;;;;;5085602;28;20397;-70
2023/08/03 02:03:59;;;;;;;3.10;1.15;;;16.40;99.90;;;;;;5088838;28;20145;-70
2023/08/03 02:06:25;;;;;;;6.15;1.13;;;16.40;99.90;;;;;;5068590;28;20055;-69
2023/08/03 02:08:51;;;;;;;3.20;0.80;;;16.40;99.90;;;;;;5087825;28;20050;-70
2023/08/03 02:11:16;;;;;;;3.42;1.00;;;16.40;99.90;;;;;;5089006;28;20079;-70
2023/08/03 02:13:42;;;;;;;5.28;1.15;;;16.40;99.90;;;;;;5087349;28;20529;-70
2023/08/03 02:16:10;;;;;;;4.30;1.17;;;16.40;99.90;;;;;;5086607;28;20531;-70
2023/08/03 02:18:39;;;;;;;4.63;1.20;;;16.40;99.90;;;;;;5088525;28;20500;-70
2023/08/03 02:21:05;;;;;;;2.83;0.82;;;16.40;99.90;;;;;;5087462;28;20055;-70
2023/08/03 02:23:32;;;;;;;2.50;0.80;;;16.40;99.90;;;;;;5086155;28;20059;-70
2023/08/03 02:25:58;;;;;;;3.55;0.85;;;16.40;99.90;;;;;;5089090;28;20050;-70
2023/08/03 02:28:24;;;;;;;2.70;1.00;;;16.40;99.90;;;;;;5064652;28;20048;-70
2023/08/03 02:30:49;;;;;;;6.57;1.10;;;16.40;99.90;;;;;;5081835;28;20062;-70
2023/08/03 02:33:15;;;;;;;2.85;0.80;;;16.40;99.90;;;;;;5088414;28;20251;-70
2023/08/03 02:35:41;;;;;;;3.72;1.10;;;16.40;99.90;;;;;;5065550;28;20051;-70
2023/08/03 02:38:08;;;;;;;2.97;0.93;;;16.50;99.90;;;;;;5085622;28;20066;-70
2023/08/03 02:40:34;;;;;;;9.77;1.10;;;16.50;99.90;;;;;;5083747;28;20061;-70
2023/08/03 02:42:59;;;;;;;3.25;1.15;;;16.50;99.90;;;;;;5088099;28;20040;-70
2023/08/03 02:45:25;;;;;;;3.78;1.15;;;16.50;99.90;;;;;;5085235;28;20673;-70
2023/08/03 02:47:51;;;;;;;3.38;1.10;;;16.50;99.90;;;;;;5069922;28;20530;-70
2023/08/03 02:50:17;;;;;;;3.30;1.10;;;16.50;99.90;;;;;;5084818;28;20556;-70
2023/08/03 02:52:43;;;;;;;2.97;0.98;;;16.50;99.90;;;;;;5070539;28;20075;-73
2023/08/03 02:55:09;;;;;;;4.50;1.00;;;16.50;99.90;;;;;;5088338;28;20043;-72
2023/08/03 02:57:34;;;;;;;5.30;1.50;;;16.50;99.90;;;;;;5087651;28;20507;-72
2023/08/03 03:00:00;;;;;;;3.35;1.40;;;16.50;99.90;;;;;;5080297;28;20043;-70
2023/08/03 03:02:26;;;;;;;2.47;1.45;;;16.50;99.90;;;;;;5085566;28;20032;-70
2023/08/03 03:04:52;;;;;;;3.28;1.25;;;16.50;99.90;;;;;;5084529;28;20040;-70
2023/08/03 03:07:17;;;;;;;3.47;1.20;;;16.50;99.90;;;;;;5070218;28;20047;-70
2023/08/03 03:09:43;;;;;;;6.50;1.45;;;16.50;99.90;;;;;;5087479;28;20113;-70
2023/08/03 03:12:09;;;;;;;4.57;1.35;;;16.50;99.90;;;;;;5069877;28;20136;-70
2023/08/03 03:14:38;;;;;;;4.82;1.63;;;16.50;99.90;;;;;;5087793;28;20044;-70
2023/08/03 03:17:04;;;;;;;5.25;1.40;;;16.50;99.90;;;;;;5085679;28;20050;-71
2023/08/03 03:19:29;;;;;;;7.07;1.45;;;16.50;99.90;;;;;;5082425;28;20086;-70
2023/08/03 03:21:55;;;;;;;4.90;1.88;;;16.50;99.90;;;;;;5086101;28;20079;-70
2023/08/03 03:24:21;;;;;;;2.78;1.35;;;16.50;99.90;;;;;;5067137;28;20048;-70
2023/08/03 03:26:47;;;;;;;8.32;1.65;;;16.50;99.90;;;;;;5086411;28;20050;-71
2023/08/03 03:29:13;;;;;;;4.05;1.60;;;16.50;99.90;;;;;;5068090;28;20040;-70
2023/08/03 03:31:38;;;;;;;6.22;1.80;;;16.50;99.90;;;;;;5087675;28;20051;-70
2023/08/03 03:34:04;;;;;;;4.75;1.77;;;16.50;99.90;;;;;;5087711;28;20048;-70
2023/08/03 03:36:30;;;;;;;3.47;1.75;;;16.50;99.90;;;;;;5069242;28;20492;-70
2023/08/03 03:38:56;;;;;;;3.80;1.58;;;16.50;99.90;;;;;;5069189;28;20043;-71
2023/08/03 03:41:22;;;;;;;4.85;1.80;;;16.50;99.90;;;;;;5086599;28;20043;-70
2023/08/03 03:43:47;;;;;;;4.80;1.80;;;16.50;99.90;;;;;;5085998;28;20124;-71
2023/08/03 03:46:13;;;;;;;3.88;1.80;;;16.50;99.90;;;;;;5068453;28;20685;-70
2023/08/03 03:48:39;;;;;;;5.93;1.83;;;16.60;99.90;;;;;;5086126;28;20519;-70
2023/08/03 03:51:05;;;;;;;7.55;2.17;;;16.50;99.90;;;;;;5083466;28;20147;-70
2023/08/03 03:53:30;;;;;;;6.55;2.17;;;16.50;99.90;;;;;;5084607;28;20063;-70
2023/08/03 03:55:56;;;;;;;6.97;2.28;;;16.50;99.90;;;;;;5067898;28;20455;-70
2023/08/03 03:58:22;;;;;;;5.30;2.80;;;16.50;99.90;;;;;;5068609;28;20051;-70
2023/08/03 04:00:48;;;;;;;8.38;2.83;;;16.50;99.90;;;;;;5085091;28;20260;-70
2023/08/03 04:03:13;;;;;;;5.20;2.40;;;16.50;99.90;;;;;;5084519;28;20078;-70
2023/08/03 04:05:39;;;;;;;6.10;3.03;;;16.50;99.90;;;;;;5087055;28;20036;-70
2023/08/03 04:08:05;;;;;;;7.53;3.40;;;16.50;99.90;;;;;;5085558;28;20034;-70
2023/08/03 04:10:32;;;;;;;9.68;3.20;;;16.50;99.90;;;;;;5084343;28;20036;-73
2023/08/03 04:12:58;;;;;;;6.88;3.13;;;16.50;99.90;;;;;;5068183;28;20051;-72
2023/08/03 04:15:24;;;;;;;7.82;2.97;;;16.50;99.90;;;;;;5085170;28;21230;-72
2023/08/03 04:17:50;;;;;;;6.85;3.10;;;16.50;99.90;;;;;;5066583;28;20077;-72
2023/08/03 04:20:16;;;;;;;8.60;3.78;;;16.50;99.90;;;;;;5084641;28;20036;-72
2023/08/03 04:22:42;;;;;;;7.90;3.85;;;16.50;99.90;;;;;;5083136;28;20123;-73
2023/08/03 04:25:09;;;;;;;5.85;3.17;;;16.50;99.90;;;;;;5084807;28;20048;-72
2023/08/03 04:27:35;;;;;;;7.68;3.38;;;16.50;99.90;;;;;;5084398;28;20044;-72
2023/08/03 04:30:01;;;;;;;7.72;3.63;;;16.50;99.90;;;;;;5084031;28;20040;-72
2023/08/03 04:32:27;;;;;;;7.85;3.67;;;16.50;99.90;;;;;;5082043;28;20119;-72
2023/08/03 04:34:53;;;;;;;7.35;3.53;;;16.50;99.90;;;;;;5082523;28;20131;-72
2023/08/03 04:37:18;;;;;;;10.40;3.75;;;16.50;99.90;;;;;;5067527;28;20044;-72
2023/08/03 04:39:45;;;;;;;9.75;3.60;;;16.50;99.90;;;;;;5085502;28;20123;-72
2023/08/03 04:42:11;;;;;;;5.97;3.15;;;16.50;99.90;;;;;;5083407;28;20401;-72
2023/08/03 04:44:36;;;;;;;7.40;3.50;;;16.50;99.90;;;;;;5079511;28;20043;-72
2023/08/03 04:47:02;;;;;;;8.60;3.45;;;16.60;99.90;;;;;;5066166;28;20051;-72
2023/08/03 04:49:28;;;;;;;9.15;3.50;;;16.60;99.90;;;;;;5064262;28;20040;-72
2023/08/03 04:51:54;;;;;;;9.80;3.38;;;16.60;99.90;;;;;;5083584;28;20137;-72
2023/08/03 04:54:20;;;;;;;10.13;3.30;;;16.60;99.90;;;;;;5067536;28;20129;-72
2023/08/03 04:56:46;;;;;;;8.60;3.10;;;16.60;99.90;;;;;;5080538;28;20033;-72
2023/08/03 04:59:12;;;;;;;7.88;2.75;;;16.60;99.90;;;;;;5083386;28;20036;-72
2023/08/03 05:01:37;;;;;;;8.93;2.50;;;16.60;99.90;;;;;;5078155;28;20069;-72
2023/08/03 05:04:03;;;;;;;10.40;3.25;;;16.60;99.90;;;;;;5080562;28;20036;-72
2023/08/03 05:06:29;;;;;;;10.90;3.22;;;16.60;99.90;;;;;;5062275;28;20043;-72
2023/08/03 05:08:55;;;;;;;9.88;3.10;;;16.60;99.90;;;;;;5084861;28;20058;-72
2023/08/03 05:11:21;;;;;;;6.68;3.05;;;16.60;99.90;;;;;;5079084;28;20048;-72
2023/08/03 05:13:47;;;;;;;8.20;2.97;;;16.50;99.90;;;;;;5082323;28;20408;-72
2023/08/03 05:16:12;;;;;;;11.23;3.35;;;16.60;99.90;;;;;;5068006;28;20047;-73
2023/08/03 05:18:38;;;;;;;7.60;3.13;;;16.60;99.90;;;;;;5078051;28;20040;-72
2023/08/03 05:21:04;;;;;;;8.38;3.28;;;16.60;99.90;;;;;;5083374;28;20127;-72
2023/08/03 05:23:30;;;;;;;8.52;3.33;;;16.60;99.90;;;;;;5087558;28;20493;-72
2023/08/03 05:25:57;;;;;;;9.73;2.92;;;16.60;99.90;;;;;;5085619;28;20170;-72
2023/08/03 05:28:26;;;;;;;7.63;2.80;;;16.60;99.90;;;;;;5086777;28;20048;-73
2023/08/03 05:30:52;;;;;;;8.80;3.20;;;16.60;99.90;;;;;;5086734;28;20489;-72
2023/08/03 05:33:17;;;;;;;16.90;4.00;;;16.60;99.90;;;;;;5069321;28;20062;-72
2023/08/03 05:35:46;;;;;;;8.68;3.35;;;16.60;99.90;;;;;;5087938;28;20631;-72
2023/08/03 05:38:14;;;;;;;9.35;2.95;;;16.60;99.90;;;;;;5089994;28;20594;-71
2023/08/03 05:40:40;;;;;;;8.10;3.33;;;16.70;99.90;;;;;;5086814;28;20032;-73
2023/08/03 05:43:10;;;;;;;8.35;3.60;;;16.70;99.90;;;;;;5071099;28;20051;-72
2023/08/03 05:45:49;;;;;;;8.27;3.40;;;16.70;99.90;;;;;;5099896;28;20116;-72
2023/08/03 05:48:19;;;;;;;12.63;4.35;;;16.70;99.90;;;;;;5085344;28;20059;-72
2023/08/03 05:50:50;;;;;;;10.65;4.20;;;16.70;99.90;;;;;;5089303;28;20440;-73
2023/08/03 05:53:17;;;;;;;15.35;4.45;;;16.70;99.90;;;;;;5101862;28;20124;-72
2023/08/03 05:55:44;;;;;;;11.48;4.35;;;16.70;99.90;;;;;;5084850;28;21113;-70
2023/08/03 05:58:12;;;;;;;14.10;5.18;;;16.70;99.90;;;;;;5085836;28;20048;-72
2023/08/03 06:00:41;;;;;;;11.00;4.72;;;16.70;99.90;;;;;;5083211;28;20111;-71
2023/08/03 06:03:13;;;;;;;10.80;4.20;;;16.70;99.90;;;;;;5086516;28;20123;-72
2023/08/03 06:05:38;;;;;;;12.95;4.57;;;16.70;99.90;;;;;;5085046;28;20446;-72
2023/08/03 06:08:20;;;;;;;7.72;4.30;;;16.80;99.90;;;;;;5088205;28;20048;-72
2023/08/03 06:10:49;;;;;;;8.85;3.80;;;16.70;99.90;;;;;;5080941;28;20145;-72
2023/08/03 06:13:16;;;;;;;8.55;3.97;;;16.70;99.90;;;;;;5089267;28;20119;-72
2023/08/03 06:15:44;;;;;;;6.32;3.60;;;16.80;99.90;;;;;;5086612;28;20119;-72
2023/08/03 06:18:15;;;;;;;9.95;3.92;;;16.80;99.90;;;;;;5084659;28;20115;-72
2023/08/03 06:20:49;;;;;;;11.65;4.20;;;16.80;99.90;;;;;;5085437;28;20109;-72
2023/08/03 06:23:20;;;;;;;7.28;4.10;;;16.80;99.90;;;;;;5067467;28;20052;-72
2023/08/03 06:25:47;;;;;;;;;;;16.80;99.90;;;;;;5086301;28;20365;-70
2023/08/03 06:28:16;;;;;;;11.23;4.53;;;16.80;99.90;;;;;;5086547;28;19926;-71
2023/08/03 06:30:42;;;;;;;9.57;3.67;;;16.80;99.90;;;;;;5087220;28;20075;-72
2023/08/03 06:33:11;;;;;;;10.02;3.40;;;16.90;99.90;;;;;;5086907;28;20126;-71
2023/08/03 06:35:46;;;;;;;6.80;3.08;;;16.90;99.90;;;;;;5086569;28;20633;-71
2023/08/03 06:38:15;;;;;;;5.50;2.90;;;17.00;99.90;;;;;;5084897;28;20067;-71
2023/08/03 06:40:42;;;;;;;6.03;3.10;;;17.10;99.90;;;;;;5080723;28;20113;-71
2023/08/03 06:43:09;;;;;;;7.28;3.55;;;17.10;99.90;;;;;;5086894;28;20389;-71
2023/08/03 06:45:35;;;;;;;8.13;3.50;;;17.20;99.90;;;;;;5081003;28;20247;-71
2023/08/03 06:48:02;;;;;;;7.65;3.20;;;17.20;99.90;;;;;;5080607;28;20082;-71
2023/08/03 06:50:29;;;;;;;6.03;2.45;;;17.30;99.90;;;;;;5086921;28;20039;-70
2023/08/03 06:52:56;;;;;;;4.80;2.80;;;17.30;99.90;;;;;;5086705;28;20050;-73
2023/08/03 06:55:22;;;;;;;7.82;3.15;;;17.40;99.90;;;;;;5086792;28;20055;-73
2023/08/03 06:57:48;;;;;;;9.30;3.47;;;17.40;99.90;;;;;;5086831;28;20055;-72
2023/08/03 07:00:14;;;;;;;8.27;2.42;;;17.40;99.90;;;;;;5085027;28;20067;-72
2023/08/03 07:02:47;;;;;;;6.40;2.67;;;17.40;99.90;;;;;;5086460;28;20484;-72
2023/08/03 07:05:13;;;;;;;7.68;2.83;;;17.40;99.90;;;;;;5083363;28;20401;-73
2023/08/03 07:07:39;;;;;;;4.88;2.30;;;17.40;99.90;;;;;;5067839;28;20051;-72
2023/08/03 07:10:06;;;;;;;6.70;2.45;;;17.50;99.90;;;;;;5086530;28;20040;-72
2023/08/03 07:12:33;;;;;;;4.47;2.25;;;17.50;99.90;;;;;;5069881;28;20040;-71
2023/08/03 07:14:59;;;;;;;6.15;2.17;;;17.50;99.90;;;;;;5066250;28;20051;-73
2023/08/03 07:17:25;;;;;;;6.25;2.10;;;17.50;99.90;;;;;;5088214;28;20468;-72
2023/08/03 07:19:51;;;;;;;8.20;2.20;;;17.50;99.90;;;;;;5086335;28;20044;-72
2023/08/03 07:22:18;;;;;;;4.03;1.70;;;17.60;99.90;;;;;;5082115;28;20063;-72
2023/08/03 07:24:44;;;;;;;6.63;1.80;;;17.60;99.90;;;;;;5067521;28;20048;-72
2023/08/03 07:27:13;;;;;;;6.50;1.83;;;17.60;99.90;;;;;;5079029;28;20046;-73
2023/08/03 07:29:38;;;;;;;3.10;1.70;;;17.60;99.90;;;;;;5084687;28;20036;-71
2023/08/03 07:32:05;;;;;;;5.53;1.63;;;17.70;99.90;;;;;;5077752;28;20098;-72
2023/08/03 07:34:30;;;;;;;6.15;1.40;;;17.80;99.90;;;;;;5078770;28;20103;-72
2023/08/03 07:36:57;;;;;;;4.18;1.38;;;17.90;99.90;;;;;;5079842;28;20385;-73
2023/08/03 07:39:23;;;;;;;8.20;1.50;;;18.00;99.90;;;;;;5061085;28;20037;-72
2023/08/03 07:41:49;;;;;;;4.85;1.65;;;18.10;99.90;;;;;;5078084;28;20070;-72
2023/08/03 07:44:16;;;;;;;7.15;1.60;;;18.20;99.90;;;;;;5081873;28;20051;-72
2023/08/03 07:46:43;;;;;;;6.78;1.20;;;18.40;99.90;;;;;;5060401;28;20096;-73
2023/08/03 07:49:08;;;;;;;8.00;1.42;;;18.50;99.90;;;;;;5081295;28;20137;-73
2023/08/03 07:51:35;;;;;;;7.68;1.30;;;18.60;99.90;;;;;;5080598;28;20071;-73
2023/08/03 07:54:00;;;;;;;5.38;1.40;;;18.70;99.90;;;;;;5079062;28;20048;-73
2023/08/03 07:56:26;;;;;;;7.72;1.58;;;18.80;99.90;;;;;;5061355;28;20054;-72
2023/08/03 07:58:53;;;;;;;6.03;1.30;;;18.90;99.90;;;;;;5064731;28;20058;-72
2023/08/03 08:01:19;;;;;;;6.15;1.25;;;19.10;99.90;;;;;;5084882;28;20798;-73
2023/08/03 08:03:45;;;;;;;5.70;1.10;;;19.20;99.90;;;;;;5061804;28;20135;-73
2023/08/03 08:06:16;;;;;;;6.13;0.80;;;19.20;99.90;;;;;;5074817;28;20158;-72
2023/08/03 08:08:43;;;;;;;5.25;1.00;;;19.20;99.90;;;;;;5078413;28;20493;-73
2023/08/03 08:11:09;;;;;;;5.00;0.73;;;19.20;99.90;;;;;;5059543;28;20063;-72
2023/08/03 08:13:35;;;;;;;3.70;1.05;;;19.20;99.90;;;;;;5074660;28;20079;-72
2023/08/03 08:16:06;;;;;;;4.15;0.73;;;19.20;99.90;;;;;;5060533;28;20473;-71
2023/08/03 08:18:33;;;;;;;6.18;1.05;;;19.40;99.90;;;;;;5061897;28;20505;-72
2023/08/03 08:21:05;;;;;;;5.25;0.90;;;19.40;99.90;;;;;;5076611;28;20063;-72
2023/08/03 08:23:31;;;;;;;4.88;1.40;;;19.50;99.90;;;;;;5063040;28;20056;-71
2023/08/03 08:25:58;;;;;;;7.50;1.20;;;19.60;99.90;;;;;;5083432;28;20505;-71
2023/08/03 08:28:25;;;;;;;6.35;1.08;;;19.70;99.90;;;;;;5067686;28;20048;-71
2023/08/03 08:30:51;;;;;;;6.18;1.20;;;19.80;99.90;;;;;;5071134;28;20070;-72
2023/08/03 08:33:18;;;;;;;7.47;1.00;;;19.90;99.90;;;;;;5071564;28;20770;-70
2023/08/03 08:35:45;;;;;;;5.10;1.20;;;20.00;99.90;;;;;;5069251;28;20059;-71
2023/08/03 08:38:12;;;;;;;11.40;2.67;;;20.10;99.90;;;;;;5075332;28;20074;-71
2023/08/03 08:40:42;;;;;;;7.03;1.30;;;20.10;99.90;;;;;;5068801;28;20144;-70
2023/08/03 08:43:08;;;;;;;4.45;1.10;;;20.10;99.90;;;;;;5067055;28;20045;-71
2023/08/03 08:45:37;;;;;;;6.18;1.63;;;20.10;99.90;;;;;;5073202;28;20127;-71
2023/08/03 08:48:04;;;;;;;6.90;1.73;;;20.10;99.90;;;;;;5073207;28;20036;-71
2023/08/03 08:50:31;;;;;;;8.43;1.85;;;20.20;99.90;;;;;;5067712;28;20441;-71
2023/08/03 08:52:58;;;;;;;6.70;1.52;;;20.10;99.90;;;;;;5067512;28;20076;-71
2023/08/03 08:55:26;;;;;;;7.68;1.67;;;20.10;99.90;;;;;;5069265;28;20246;-71
2023/08/03 08:57:52;;;;;;;7.32;1.52;;;20.10;99.90;;;;;;5051488;28;20044;-72
2023/08/03 09:00:19;;;;;;;7.38;1.70;;;20.20;99.90;;;;;;5072185;28;20052;-70
2023/08/03 09:02:45;;;;;;;6.97;1.08;;;20.30;99.90;;;;;;5076789;28;20124;-71
2023/08/03 09:05:11;;;;;;;7.57;1.60;;;20.40;99.90;;;;;;5064547;28;20052;-70
2023/08/03 09:07:37;;;;;;;6.00;1.25;;;20.40;99.90;;;;;;5083994;28;21653;-73
2023/08/03 09:10:03;;;;;;;8.07;1.50;;;20.30;99.90;;;;;;5063401;28;20050;-73
2023/08/03 09:12:31;;;;;;;13.05;1.67;;;20.20;99.90;;;;;;5083030;28;20039;-72
2023/08/03 09:14:58;;;;;;;9.05;1.63;;;20.10;99.90;;;;;;5074921;28;20040;-73
2023/08/03 09:17:25;;;;;;;7.25;1.65;;;20.00;99.90;;;;;;5070000;28;20851;-70
2023/08/03 09:19:54;;;;;;;7.97;2.30;;;20.00;99.90;;;;;;5070511;28;20051;-72
2023/08/03 09:22:25;;;;;;;8.70;1.75;;;20.00;99.90;;;;;;5069455;28;20063;-73
2023/08/03 09:25:10;;;;;;;9.63;1.85;;;20.00;99.90;;;;;;5071853;28;20048;-72
2023/08/03 09:27:47;;;;;;;5.78;1.70;;;20.10;99.90;;;;;;5075847;28;20572;-73
2023/08/03 09:30:12;;;;;;;10.32;1.95;;;20.20;99.90;;;;;;5064696;28;20113;-73
2023/08/03 09:32:39;;;;;;;7.03;1.77;;;20.40;99.90;;;;;;5078309;28;20493;-73
2023/08/03 09:35:19;;;;;;;6.82;1.60;;;20.50;99.90;;;;;;5081537;28;20570;-73
2023/08/03 09:37:45;;;;;;;8.00;2.28;;;20.50;99.90;;;;;;5080485;28;20072;-74
2023/08/03 09:40:12;;;;;;;8.02;1.90;;;20.60;99.90;;;;;;5082316;28;21387;-73
2023/08/03 09:42:40;;;;;;;6.93;1.65;;;20.70;99.90;;;;;;5077696;28;20044;-72
2023/08/03 09:45:08;;;;;;;7.78;1.30;;;20.70;99.90;;;;;;5083103;28;20581;-71
2023/08/03 09:47:38;;;;;;;11.13;2.10;;;20.80;99.90;;;;;;5065102;28;20052;-71
2023/08/03 09:50:04;;;;;;;8.10;1.83;;;20.80;99.90;;;;;;5083248;28;20656;-71
2023/08/03 09:52:31;;;;;;;6.88;1.25;;;20.80;99.90;;;;;;5080055;28;20102;-70
2023/08/03 09:55:12;;;;;;;5.57;1.17;;;20.90;99.90;;;;;;5083072;28;20123;-71
2023/08/03 09:57:47;;;;;;;6.90;1.20;;;20.90;99.90;;;;;;5081474;28;20483;-71
2023/08/03 10:00:15;;;;;;;6.82;1.30;;;21.00;99.90;;;;;;5065976;28;20048;-71
2023/08/03 10:02:52;;;;;;;8.52;1.98;;;21.10;99.90;;;;;;5084177;28;20067;-71
2023/08/03 10:05:20;;;;;;;7.55;1.70;;;21.10;99.90;;;;;;5064794;28;20128;-71
2023/08/03 10:08:13;;;;;;;9.23;1.58;;;21.20;99.90;;;;;;5084525;28;20442;-71
2023/08/03 10:10:46;;;;;;;8.70;1.42;;;21.20;99.90;;;;;;5088123;28;20032;-71
2023/08/03 10:13:12;;;;;;;6.13;1.50;;;21.10;99.90;;;;;;5083356;28;20117;-71
2023/08/03 10:15:41;;;;;;;7.78;2.30;;;21.10;99.90;;;;;;5085866;28;20076;-70
2023/08/03 10:18:07;;;;;;;5.40;1.40;;;21.10;99.90;;;;;;5086780;28;20059;-71
2023/08/03 10:20:38;;;;;;;6.53;1.30;;;21.10;99.90;;;;;;5068531;28;20236;-71
2023/08/03 10:23:21;;;;;;;4.93;1.15;;;21.10;99.90;;;;;;5085576;28;20073;-71
2023/08/03 10:26:07;;;;;;;6.95;1.25;;;21.20;99.90;;;;;;5062778;28;20664;-71
2023/08/03 10:28:39;;;;;;;8.48;1.67;;;21.30;99.90;;;;;;5088276;28;20060;-71
2023/08/03 10:31:15;;;;;;;7.15;1.52;;;21.30;99.90;;;;;;5088974;28;20052;-71
2023/08/03 10:33:47;;;;;;;8.18;1.60;;;21.30;99.90;;;;;;5083175;28;20044;-70
2023/08/03 10:36:28;;;;;;;7.25;1.65;;;21.20;99.90;;;;;;5086923;28;20075;-71
2023/08/03 10:38:55;;;;;;;9.93;1.60;;;21.20;99.90;;;;;;5064448;28;20151;-71
2023/08/03 10:41:26;;;;;;;9.50;1.98;;;21.10;99.90;;;;;;5078123;28;20040;-71
2023/08/03 10:44:07;;;;;;;6.85;1.70;;;21.10;99.90;;;;;;5088824;28;20070;-71
2023/08/03 10:46:33;;;;;;;;;;;21.20;99.90;;;;;;5085434;28;20044;-72
2023/08/03 10:48:59;;;;;;;8.15;1.20;;;21.30;99.90;;;;;;5080785;28;19928;-72
2023/08/03 10:51:25;;;;;;;7.30;1.77;;;21.40;99.90;;;;;;5086470;28;20048;-72
2023/08/03 10:53:51;;;;;;;6.95;1.42;;;21.40;99.90;;;;;;5070219;28;20048;-73
2023/08/03 10:56:16;;;;;;;4.72;1.30;;;21.40;99.90;;;;;;5084517;28;20603;-70
2023/08/03 10:58:50;;;;;;;6.50;1.20;;;21.40;99.90;;;;;;5082269;28;20044;-71
2023/08/03 11:01:25;;;;;;;6.22;1.20;;;21.30;99.90;;;;;;5097624;28;20051;-73
2023/08/03 11:03:51;;;;;;;4.28;0.80;;;21.30;99.90;;;;;;5086329;28;20051;-72
2023/08/03 11:06:17;;;;;;;4.03;0.90;;;21.20;99.90;;;;;;5085309;28;20052;-72
2023/08/03 11:08:47;;;;;;;6.65;1.00;;;21.20;99.90;;;;;;5068681;28;20104;-70
2023/08/03 11:11:16;;;;;;;5.15;1.05;;;21.20;99.90;;;;;;5063083;28;20047;-71
2023/08/03 11:13:44;;;;;;;5.70;1.25;;;21.30;99.90;;;;;;5079512;28;20500;-73
2023/08/03 11:16:18;;;;;;;4.22;0.90;;;21.20;99.90;;;;;;5069644;28;20051;-72
2023/08/03 11:18:48;;;;;;;4.88;1.08;;;21.20;99.90;;;;;;5085000;28;20044;-72
2023/08/03 11:21:14;;;;;;;5.82;0.90;;;21.20;99.90;;;;;;5083551;28;20048;-70
2023/08/03 11:23:40;;;;;;;8.63;1.13;;;21.10;99.90;;;;;;5085558;28;20661;-71
2023/08/03 11:26:09;;;;;;;6.80;1.63;;;21.10;99.90;;;;;;5083001;28;20131;-71
2023/08/03 11:28:43;;;;;;;7.30;1.63;;;21.10;99.90;;;;;;5085440;28;20141;-71
2023/08/03 11:31:19;;;;;;;5.20;1.13;;;21.10;99.90;;;;;;5086620;28;20511;-71
2023/08/03 11:33:50;;;;;;;4.65;0.88;;;21.20;99.90;;;;;;5067488;28;20785;-72
2023/08/03 11:36:17;;;;;;;4.60;1.05;;;21.30;99.90;;;;;;5083342;28;20048;-70
2023/08/03 11:38:44;;;;;;;4.13;1.25;;;21.30;99.90;;;;;;5086795;28;20036;-71
2023/08/03 11:41:14;;;;;;;4.03;0.75;;;21.40;99.90;;;;;;5083079;28;20047;-72
2023/08/03 11:43:40;;;;;;;5.25;0.98;;;21.50;99.90;;;;;;5080103;28;20052;-71
2023/08/03 11:46:07;;;;;;;4.55;0.80;;;21.50;99.90;;;;;;5087393;28;20454;-72
2023/08/03 11:48:32;;;;;;;6.40;1.17;;;21.60;99.90;;;;;;5085700;28;20044;-72
2023/08/03 11:50:59;;;;;;;4.13;1.08;;;21.60;99.90;;;;;;5086821;28;20094;-71
2023/08/03 11:53:31;;;;;;;6.55;1.50;;;21.60;99.90;;;;;;5085168;28;20160;-72
2023/08/03 11:55:57;;;;;;;4.15;1.50;;;21.70;99.90;;;;;;5067595;28;20087;-72
2023/08/03 11:58:24;;;;;;;3.45;1.08;;;21.70;99.90;;;;;;5086043;28;20078;-72
2023/08/03 12:00:57;;;;;;;3.20;0.85;;;21.70;99.90;;;;;;5065595;28;20082;-72
2023/08/03 12:03:35;;;;;;;5.07;1.67;;;21.70;99.90;;;;;;5096407;28;20040;-73
2023/08/03 12:06:09;;;;;;;4.13;1.20;;;21.70;99.90;;;;;;5086787;28;20105;-73
2023/08/03 12:08:46;;;;;;;6.38;1.58;;;21.70;99.90;;;;;;5085305;28;20048;-72
2023/08/03 12:11:16;;;;;;;5.00;1.65;;;21.70;99.90;;;;;;5084331;28;20127;-72
2023/08/03 12:13:43;;;;;;;10.75;1.50;;;21.70;99.90;;;;;;5085286;28;20048;-72
2023/08/03 12:16:09;;;;;;;4.90;1.52;;;21.60;99.90;;;;;;5085540;28;20112;-71
2023/08/03 12:18:35;;;;;;;5.75;1.48;;;21.60;99.90;;;;;;5085390;28;20040;-71
2023/08/03 12:21:01;;;;;;;6.32;1.40;;;21.50;99.90;;;;;;5086432;28;20048;-72
2023/08/03 12:23:27;;;;;;;8.07;1.70;;;21.40;99.90;;;;;;5085229;28;20136;-71
2023/08/03 12:25:54;;;;;;;9.00;1.38;;;21.30;99.90;;;;;;5080123;28;20769;-72
2023/08/03 12:28:21;;;;;;;5.78;1.40;;;21.30;99.90;;;;;;5085031;28;20094;-71
2023/08/03 12:30:47;;;;;;;7.38;1.85;;;21.20;99.90;;;;;;5086095;28;20448;-72
2023/08/03 12:33:13;;;;;;;9.43;1.45;;;21.10;99.90;;;;;;5084553;28;20236;-71
2023/08/03 12:35:39;;;;;;;9.68;1.50;;;21.00;99.90;;;;;;5084235;28;20040;-71
2023/08/03 12:38:05;;;;;;;9.10;2.08;;;21.00;99.90;;;;;;5084831;28;20066;-75
2023/08/03 12:40:30;;;;;;;9.13;1.60;;;20.90;99.90;;;;;;5084878;28;20036;-72
2023/08/03 12:42:56;;;;;;;7.70;1.30;;;20.90;99.90;;;;;;5076673;28;20385;-71
2023/08/03 12:45:24;;;;;;;8.18;1.40;;;20.80;99.90;;;;;;5085087;28;20036;-72
2023/08/03 12:47:50;;;;;;;6.43;1.30;;;20.70;99.90;;;;;;5081828;28;20508;-71